sensor_id;sensor_type;location;lat;lon;timestamp;P1;durP1;ratioP1;P2;durP2;ratioP2
10641;SDS011;5369;49.586;8.646;2024-01-30T00:01:46;25.30;;;16.53;;
10641;SDS011;5369;49.586;8.646;2024-01-30T00:04:12;26.07;;;18.13;;
10641;SDS011;5369;49.586;8.646;2024-01-30T00:06:38;24.67;;;17.10;;
10641;SDS011;5369;49.586;8.646;2024-01-30T00:09:05;24.67;;;18.17;;
10641;SDS011;5369;49.586;8.646;2024-01-30T00:11:32;25.20;;;17.33;;
10641;SDS011;5369;49.586;8.646;2024-01-30T00:13:58;23.63;;;16.90;;
10641;SDS011;5369;49.586;8.646;2024-01-30T00:16:24;24.63;;;17.17;;
10641;SDS011;5369;49.586;8.646;2024-01-30T00:18:51;25.07;;;17.30;;
10641;SDS011;5369;49.586;8.646;2024-01-30T00:21:17;24.93;;;16.97;;
10641;SDS011;5369;49.586;8.646;2024-01-30T00:23:43;25.57;;;17.57;;
10641;SDS011;5369;49.586;8.646;2024-01-30T00:26:10;26.03;;;17.67;;
10641;SDS011;5369;49.586;8.646;2024-01-30T00:28:37;25.27;;;17.27;;
10641;SDS011;5369;49.586;8.646;2024-01-30T00:31:03;22.23;;;15.93;;
10641;SDS011;5369;49.586;8.646;2024-01-30T00:33:30;24.87;;;17.70;;
10641;SDS011;5369;49.586;8.646;2024-01-30T00:35:56;25.70;;;18.60;;
10641;SDS011;5369;49.586;8.646;2024-01-30T00:38:22;28.17;;;18.40;;
10641;SDS011;5369;49.586;8.646;2024-01-30T00:40:48;26.97;;;17.33;;
10641;SDS011;5369;49.586;8.646;2024-01-30T00:43:15;25.90;;;17.43;;
10641;SDS011;5369;49.586;8.646;2024-01-30T00:45:41;28.57;;;18.63;;
10641;SDS011;5369;49.586;8.646;2024-01-30T00:48:07;40.67;;;22.30;;
10641;SDS011;5369;49.586;8.646;2024-01-30T00:50:33;36.47;;;21.00;;
10641;SDS011;5369;49.586;8.646;2024-01-30T00:53:00;26.53;;;18.50;;
10641;SDS011;5369;49.586;8.646;2024-01-30T00:55:26;24.27;;;17.10;;
10641;SDS011;5369;49.586;8.646;2024-01-30T00:57:52;24.90;;;16.47;;
10641;SDS011;5369;49.586;8.646;2024-01-30T01:00:18;24.33;;;16.33;;
10641;SDS011;5369;49.586;8.646;2024-01-30T01:02:46;22.87;;;16.43;;
10641;SDS011;5369;49.586;8.646;2024-01-30T01:05:12;23.97;;;16.73;;
10641;SDS011;5369;49.586;8.646;2024-01-30T01:07:38;26.23;;;16.97;;
10641;SDS011;5369;49.586;8.646;2024-01-30T01:10:05;22.23;;;15.83;;
10641;SDS011;5369;49.586;8.646;2024-01-30T01:12:32;22.70;;;16.03;;
10641;SDS011;5369;49.586;8.646;2024-01-30T01:14:58;23.83;;;16.57;;
10641;SDS011;5369;49.586;8.646;2024-01-30T01:17:24;23.47;;;15.63;;
10641;SDS011;5369;49.586;8.646;2024-01-30T01:19:50;23.27;;;16.50;;
10641;SDS011;5369;49.586;8.646;2024-01-30T01:22:17;24.00;;;17.07;;
10641;SDS011;5369;49.586;8.646;2024-01-30T01:24:43;23.83;;;15.33;;
10641;SDS011;5369;49.586;8.646;2024-01-30T01:27:09;26.27;;;18.33;;
10641;SDS011;5369;49.586;8.646;2024-01-30T01:29:36;28.10;;;18.47;;
10641;SDS011;5369;49.586;8.646;2024-01-30T01:32:02;27.13;;;18.30;;
10641;SDS011;5369;49.586;8.646;2024-01-30T01:34:28;27.20;;;18.60;;
10641;SDS011;5369;49.586;8.646;2024-01-30T01:36:55;25.00;;;17.20;;
10641;SDS011;5369;49.586;8.646;2024-01-30T01:39:22;23.77;;;17.23;;
10641;SDS011;5369;49.586;8.646;2024-01-30T01:41:51;26.47;;;16.83;;
10641;SDS011;5369;49.586;8.646;2024-01-30T01:44:20;25.40;;;16.87;;
10641;SDS011;5369;49.586;8.646;2024-01-30T01:46:46;27.90;;;18.00;;
10641;SDS011;5369;49.586;8.646;2024-01-30T01:49:13;33.90;;;19.03;;
10641;SDS011;5369;49.586;8.646;2024-01-30T01:51:39;30.03;;;18.57;;
10641;SDS011;5369;49.586;8.646;2024-01-30T01:54:07;26.30;;;17.40;;
10641;SDS011;5369;49.586;8.646;2024-01-30T01:56:33;24.77;;;17.73;;
10641;SDS011;5369;49.586;8.646;2024-01-30T01:59:00;26.10;;;17.00;;
10641;SDS011;5369;49.586;8.646;2024-01-30T02:01:31;21.60;;;15.17;;
10641;SDS011;5369;49.586;8.646;2024-01-30T02:03:58;24.03;;;16.13;;
10641;SDS011;5369;49.586;8.646;2024-01-30T02:06:24;22.20;;;15.97;;
10641;SDS011;5369;49.586;8.646;2024-01-30T02:08:50;21.50;;;14.27;;
10641;SDS011;5369;49.586;8.646;2024-01-30T02:11:16;21.87;;;15.17;;
10641;SDS011;5369;49.586;8.646;2024-01-30T02:13:43;23.30;;;16.17;;
10641;SDS011;5369;49.586;8.646;2024-01-30T02:16:09;19.33;;;13.93;;
10641;SDS011;5369;49.586;8.646;2024-01-30T02:18:35;24.90;;;16.57;;
10641;SDS011;5369;49.586;8.646;2024-01-30T02:21:16;21.80;;;15.23;;
10641;SDS011;5369;49.586;8.646;2024-01-30T02:23:49;24.20;;;15.37;;
10641;SDS011;5369;49.586;8.646;2024-01-30T02:26:15;25.57;;;16.23;;
10641;SDS011;5369;49.586;8.646;2024-01-30T02:28:41;25.77;;;16.40;;
10641;SDS011;5369;49.586;8.646;2024-01-30T02:31:07;23.83;;;15.97;;
10641;SDS011;5369;49.586;8.646;2024-01-30T02:33:33;23.33;;;15.83;;
10641;SDS011;5369;49.586;8.646;2024-01-30T02:35:59;21.20;;;15.60;;
10641;SDS011;5369;49.586;8.646;2024-01-30T02:38:26;23.43;;;15.67;;
10641;SDS011;5369;49.586;8.646;2024-01-30T02:40:54;21.03;;;14.80;;
10641;SDS011;5369;49.586;8.646;2024-01-30T02:43:21;21.90;;;15.60;;
10641;SDS011;5369;49.586;8.646;2024-01-30T02:45:47;20.57;;;14.90;;
10641;SDS011;5369;49.586;8.646;2024-01-30T02:48:13;22.00;;;15.10;;
10641;SDS011;5369;49.586;8.646;2024-01-30T02:50:39;22.73;;;16.13;;
10641;SDS011;5369;49.586;8.646;2024-01-30T02:53:06;22.67;;;15.43;;
10641;SDS011;5369;49.586;8.646;2024-01-30T02:55:32;23.53;;;15.93;;
10641;SDS011;5369;49.586;8.646;2024-01-30T02:57:59;22.00;;;15.10;;
10641;SDS011;5369;49.586;8.646;2024-01-30T03:00:25;22.63;;;15.57;;
10641;SDS011;5369;49.586;8.646;2024-01-30T03:02:51;19.70;;;14.57;;
10641;SDS011;5369;49.586;8.646;2024-01-30T03:05:17;21.57;;;14.63;;
10641;SDS011;5369;49.586;8.646;2024-01-30T03:07:43;22.60;;;15.03;;
10641;SDS011;5369;49.586;8.646;2024-01-30T03:10:09;22.03;;;15.40;;
10641;SDS011;5369;49.586;8.646;2024-01-30T03:12:36;24.63;;;15.17;;
10641;SDS011;5369;49.586;8.646;2024-01-30T03:15:02;25.30;;;16.53;;
10641;SDS011;5369;49.586;8.646;2024-01-30T03:17:29;19.67;;;13.87;;
10641;SDS011;5369;49.586;8.646;2024-01-30T03:19:55;22.83;;;15.87;;
10641;SDS011;5369;49.586;8.646;2024-01-30T03:22:21;23.03;;;15.17;;
10641;SDS011;5369;49.586;8.646;2024-01-30T03:24:47;23.00;;;15.83;;
10641;SDS011;5369;49.586;8.646;2024-01-30T03:27:13;22.97;;;15.23;;
10641;SDS011;5369;49.586;8.646;2024-01-30T03:29:39;22.87;;;15.63;;
10641;SDS011;5369;49.586;8.646;2024-01-30T03:32:06;22.40;;;14.87;;
10641;SDS011;5369;49.586;8.646;2024-01-30T03:34:32;18.80;;;14.07;;
10641;SDS011;5369;49.586;8.646;2024-01-30T03:36:58;20.77;;;14.77;;
10641;SDS011;5369;49.586;8.646;2024-01-30T03:39:24;19.00;;;13.43;;
10641;SDS011;5369;49.586;8.646;2024-01-30T03:41:50;21.17;;;14.47;;
10641;SDS011;5369;49.586;8.646;2024-01-30T03:44:16;20.07;;;14.33;;
10641;SDS011;5369;49.586;8.646;2024-01-30T03:46:42;22.27;;;15.10;;
10641;SDS011;5369;49.586;8.646;2024-01-30T03:49:09;21.00;;;13.90;;
10641;SDS011;5369;49.586;8.646;2024-01-30T03:51:35;22.03;;;14.67;;
10641;SDS011;5369;49.586;8.646;2024-01-30T03:54:01;19.20;;;13.77;;
10641;SDS011;5369;49.586;8.646;2024-01-30T03:56:27;19.23;;;13.27;;
10641;SDS011;5369;49.586;8.646;2024-01-30T03:58:53;20.30;;;14.03;;
10641;SDS011;5369;49.586;8.646;2024-01-30T04:01:21;22.30;;;14.20;;
10641;SDS011;5369;49.586;8.646;2024-01-30T04:03:47;20.87;;;14.83;;
10641;SDS011;5369;49.586;8.646;2024-01-30T04:06:13;18.57;;;14.10;;
10641;SDS011;5369;49.586;8.646;2024-01-30T04:08:39;18.87;;;14.67;;
10641;SDS011;5369;49.586;8.646;2024-01-30T04:11:05;19.90;;;13.73;;
10641;SDS011;5369;49.586;8.646;2024-01-30T04:13:35;17.10;;;13.63;;
10641;SDS011;5369;49.586;8.646;2024-01-30T04:16:01;20.20;;;13.87;;
10641;SDS011;5369;49.586;8.646;2024-01-30T04:18:28;18.47;;;13.80;;
10641;SDS011;5369;49.586;8.646;2024-01-30T04:20:54;21.27;;;13.93;;
10641;SDS011;5369;49.586;8.646;2024-01-30T04:23:20;21.37;;;14.57;;
10641;SDS011;5369;49.586;8.646;2024-01-30T04:25:46;19.60;;;14.07;;
10641;SDS011;5369;49.586;8.646;2024-01-30T04:28:13;20.63;;;14.10;;
10641;SDS011;5369;49.586;8.646;2024-01-30T04:30:39;18.27;;;13.10;;
10641;SDS011;5369;49.586;8.646;2024-01-30T04:33:05;21.40;;;15.07;;
10641;SDS011;5369;49.586;8.646;2024-01-30T04:35:31;19.30;;;14.37;;
10641;SDS011;5369;49.586;8.646;2024-01-30T04:37:57;20.60;;;14.80;;
10641;SDS011;5369;49.586;8.646;2024-01-30T04:40:23;21.77;;;13.93;;
10641;SDS011;5369;49.586;8.646;2024-01-30T04:42:49;18.97;;;13.47;;
10641;SDS011;5369;49.586;8.646;2024-01-30T04:45:16;21.07;;;14.17;;
10641;SDS011;5369;49.586;8.646;2024-01-30T04:47:42;19.00;;;13.67;;
10641;SDS011;5369;49.586;8.646;2024-01-30T04:50:08;18.37;;;12.60;;
10641;SDS011;5369;49.586;8.646;2024-01-30T04:52:34;19.77;;;13.77;;
10641;SDS011;5369;49.586;8.646;2024-01-30T04:55:01;18.80;;;14.20;;
10641;SDS011;5369;49.586;8.646;2024-01-30T04:57:27;19.53;;;13.80;;
10641;SDS011;5369;49.586;8.646;2024-01-30T04:59:53;20.33;;;14.73;;
10641;SDS011;5369;49.586;8.646;2024-01-30T05:02:19;21.63;;;15.03;;
10641;SDS011;5369;49.586;8.646;2024-01-30T05:04:46;22.30;;;14.83;;
10641;SDS011;5369;49.586;8.646;2024-01-30T05:07:12;21.13;;;14.17;;
10641;SDS011;5369;49.586;8.646;2024-01-30T05:09:38;21.13;;;14.53;;
10641;SDS011;5369;49.586;8.646;2024-01-30T05:12:04;19.70;;;14.20;;
10641;SDS011;5369;49.586;8.646;2024-01-30T05:14:30;20.23;;;14.07;;
10641;SDS011;5369;49.586;8.646;2024-01-30T05:16:57;20.73;;;14.20;;
10641;SDS011;5369;49.586;8.646;2024-01-30T05:19:23;19.07;;;13.83;;
10641;SDS011;5369;49.586;8.646;2024-01-30T05:21:49;19.03;;;13.97;;
10641;SDS011;5369;49.586;8.646;2024-01-30T05:24:15;22.20;;;14.57;;
10641;SDS011;5369;49.586;8.646;2024-01-30T05:26:42;21.67;;;14.97;;
10641;SDS011;5369;49.586;8.646;2024-01-30T05:29:08;21.50;;;14.83;;
10641;SDS011;5369;49.586;8.646;2024-01-30T05:31:34;19.23;;;13.70;;
10641;SDS011;5369;49.586;8.646;2024-01-30T05:34:00;21.20;;;14.43;;
10641;SDS011;5369;49.586;8.646;2024-01-30T05:36:26;21.70;;;14.03;;
10641;SDS011;5369;49.586;8.646;2024-01-30T05:38:53;20.27;;;14.30;;
10641;SDS011;5369;49.586;8.646;2024-01-30T05:41:19;19.63;;;14.13;;
10641;SDS011;5369;49.586;8.646;2024-01-30T05:43:46;22.17;;;16.47;;
10641;SDS011;5369;49.586;8.646;2024-01-30T05:46:13;20.73;;;14.93;;
10641;SDS011;5369;49.586;8.646;2024-01-30T05:48:39;19.20;;;14.17;;
10641;SDS011;5369;49.586;8.646;2024-01-30T05:51:06;22.53;;;14.10;;
10641;SDS011;5369;49.586;8.646;2024-01-30T05:53:32;20.57;;;15.30;;
10641;SDS011;5369;49.586;8.646;2024-01-30T05:55:59;23.30;;;15.63;;
10641;SDS011;5369;49.586;8.646;2024-01-30T05:58:26;21.97;;;15.30;;
10641;SDS011;5369;49.586;8.646;2024-01-30T06:00:52;20.50;;;14.27;;
10641;SDS011;5369;49.586;8.646;2024-01-30T06:03:18;25.47;;;15.73;;
10641;SDS011;5369;49.586;8.646;2024-01-30T06:05:44;22.20;;;15.23;;
10641;SDS011;5369;49.586;8.646;2024-01-30T06:08:10;23.83;;;15.67;;
10641;SDS011;5369;49.586;8.646;2024-01-30T06:10:36;21.27;;;15.03;;
10641;SDS011;5369;49.586;8.646;2024-01-30T06:13:04;22.85;;;16.85;;
10641;SDS011;5369;49.586;8.646;2024-01-30T06:15:30;21.63;;;16.10;;
10641;SDS011;5369;49.586;8.646;2024-01-30T06:17:58;22.70;;;15.77;;
10641;SDS011;5369;49.586;8.646;2024-01-30T06:20:24;23.30;;;16.47;;
10641;SDS011;5369;49.586;8.646;2024-01-30T06:22:50;24.37;;;15.47;;
10641;SDS011;5369;49.586;8.646;2024-01-30T06:25:16;22.60;;;15.90;;
10641;SDS011;5369;49.586;8.646;2024-01-30T06:27:43;21.03;;;16.13;;
10641;SDS011;5369;49.586;8.646;2024-01-30T06:30:09;22.27;;;15.93;;
10641;SDS011;5369;49.586;8.646;2024-01-30T06:32:35;21.20;;;15.10;;
10641;SDS011;5369;49.586;8.646;2024-01-30T06:35:02;23.87;;;16.47;;
10641;SDS011;5369;49.586;8.646;2024-01-30T06:37:28;23.43;;;15.57;;
10641;SDS011;5369;49.586;8.646;2024-01-30T06:39:54;24.70;;;15.30;;
10641;SDS011;5369;49.586;8.646;2024-01-30T06:42:20;23.13;;;15.27;;
10641;SDS011;5369;49.586;8.646;2024-01-30T06:44:47;22.03;;;15.67;;
10641;SDS011;5369;49.586;8.646;2024-01-30T06:47:13;24.20;;;17.10;;
10641;SDS011;5369;49.586;8.646;2024-01-30T06:49:39;23.33;;;16.37;;
10641;SDS011;5369;49.586;8.646;2024-01-30T06:52:07;23.17;;;15.60;;
10641;SDS011;5369;49.586;8.646;2024-01-30T06:54:33;19.13;;;13.83;;
10641;SDS011;5369;49.586;8.646;2024-01-30T06:56:59;22.13;;;14.53;;
10641;SDS011;5369;49.586;8.646;2024-01-30T06:59:26;23.70;;;14.27;;
10641;SDS011;5369;49.586;8.646;2024-01-30T07:01:52;22.00;;;15.33;;
10641;SDS011;5369;49.586;8.646;2024-01-30T07:04:19;25.33;;;15.40;;
10641;SDS011;5369;49.586;8.646;2024-01-30T07:06:45;22.10;;;15.20;;
10641;SDS011;5369;49.586;8.646;2024-01-30T07:09:11;26.77;;;16.27;;
10641;SDS011;5369;49.586;8.646;2024-01-30T07:11:38;23.50;;;16.10;;
10641;SDS011;5369;49.586;8.646;2024-01-30T07:14:05;23.07;;;15.73;;
10641;SDS011;5369;49.586;8.646;2024-01-30T07:16:31;24.27;;;16.00;;
10641;SDS011;5369;49.586;8.646;2024-01-30T07:18:57;20.77;;;14.93;;
10641;SDS011;5369;49.586;8.646;2024-01-30T07:21:23;22.57;;;15.93;;
10641;SDS011;5369;49.586;8.646;2024-01-30T07:23:56;23.27;;;15.63;;
10641;SDS011;5369;49.586;8.646;2024-01-30T07:26:22;22.63;;;14.73;;
10641;SDS011;5369;49.586;8.646;2024-01-30T07:28:49;22.00;;;14.87;;
10641;SDS011;5369;49.586;8.646;2024-01-30T07:31:15;23.67;;;15.07;;
10641;SDS011;5369;49.586;8.646;2024-01-30T07:33:42;22.40;;;14.90;;
10641;SDS011;5369;49.586;8.646;2024-01-30T07:36:08;22.40;;;13.80;;
10641;SDS011;5369;49.586;8.646;2024-01-30T07:38:35;22.80;;;15.63;;
10641;SDS011;5369;49.586;8.646;2024-01-30T07:41:02;22.83;;;15.50;;
10641;SDS011;5369;49.586;8.646;2024-01-30T07:43:28;23.07;;;15.33;;
10641;SDS011;5369;49.586;8.646;2024-01-30T07:45:54;24.03;;;15.33;;
10641;SDS011;5369;49.586;8.646;2024-01-30T07:48:22;22.27;;;14.93;;
10641;SDS011;5369;49.586;8.646;2024-01-30T07:50:48;21.37;;;14.47;;
10641;SDS011;5369;49.586;8.646;2024-01-30T07:53:14;21.40;;;15.00;;
10641;SDS011;5369;49.586;8.646;2024-01-30T07:55:41;22.60;;;15.23;;
10641;SDS011;5369;49.586;8.646;2024-01-30T07:58:09;22.07;;;14.70;;
10641;SDS011;5369;49.586;8.646;2024-01-30T08:00:35;21.77;;;14.47;;
10641;SDS011;5369;49.586;8.646;2024-01-30T08:03:02;22.57;;;15.80;;
10641;SDS011;5369;49.586;8.646;2024-01-30T08:05:29;24.30;;;16.07;;
10641;SDS011;5369;49.586;8.646;2024-01-30T08:07:55;22.80;;;15.90;;
10641;SDS011;5369;49.586;8.646;2024-01-30T08:10:21;24.20;;;17.40;;
10641;SDS011;5369;49.586;8.646;2024-01-30T08:12:47;25.20;;;16.87;;
10641;SDS011;5369;49.586;8.646;2024-01-30T08:15:13;20.87;;;14.47;;
10641;SDS011;5369;49.586;8.646;2024-01-30T08:17:40;22.87;;;15.60;;
10641;SDS011;5369;49.586;8.646;2024-01-30T08:20:06;24.43;;;16.27;;
10641;SDS011;5369;49.586;8.646;2024-01-30T08:22:40;20.67;;;13.97;;
10641;SDS011;5369;49.586;8.646;2024-01-30T08:25:06;20.60;;;14.40;;
10641;SDS011;5369;49.586;8.646;2024-01-30T08:27:33;20.23;;;13.83;;
10641;SDS011;5369;49.586;8.646;2024-01-30T08:30:01;19.83;;;14.03;;
10641;SDS011;5369;49.586;8.646;2024-01-30T08:32:27;23.70;;;16.70;;
10641;SDS011;5369;49.586;8.646;2024-01-30T08:34:53;25.07;;;16.67;;
10641;SDS011;5369;49.586;8.646;2024-01-30T08:37:20;22.43;;;16.73;;
10641;SDS011;5369;49.586;8.646;2024-01-30T08:39:47;19.53;;;15.00;;
10641;SDS011;5369;49.586;8.646;2024-01-30T08:42:13;19.57;;;13.87;;
10641;SDS011;5369;49.586;8.646;2024-01-30T08:44:41;18.47;;;12.70;;
10641;SDS011;5369;49.586;8.646;2024-01-30T08:47:07;15.47;;;12.33;;
10641;SDS011;5369;49.586;8.646;2024-01-30T08:49:34;16.97;;;12.47;;
10641;SDS011;5369;49.586;8.646;2024-01-30T08:52:00;16.43;;;11.97;;
10641;SDS011;5369;49.586;8.646;2024-01-30T08:54:26;17.00;;;11.63;;
10641;SDS011;5369;49.586;8.646;2024-01-30T08:56:52;15.90;;;11.23;;
10641;SDS011;5369;49.586;8.646;2024-01-30T08:59:20;15.37;;;11.63;;
10641;SDS011;5369;49.586;8.646;2024-01-30T09:01:47;14.30;;;11.53;;
10641;SDS011;5369;49.586;8.646;2024-01-30T09:04:13;13.33;;;10.83;;
10641;SDS011;5369;49.586;8.646;2024-01-30T09:06:39;16.17;;;11.63;;
10641;SDS011;5369;49.586;8.646;2024-01-30T09:09:05;14.20;;;11.47;;
10641;SDS011;5369;49.586;8.646;2024-01-30T09:11:32;14.23;;;10.20;;
10641;SDS011;5369;49.586;8.646;2024-01-30T09:13:59;13.10;;;10.43;;
10641;SDS011;5369;49.586;8.646;2024-01-30T09:16:25;12.60;;;10.47;;
10641;SDS011;5369;49.586;8.646;2024-01-30T09:18:51;12.07;;;10.23;;
10641;SDS011;5369;49.586;8.646;2024-01-30T09:21:18;13.87;;;10.97;;
10641;SDS011;5369;49.586;8.646;2024-01-30T09:23:44;12.90;;;10.20;;
10641;SDS011;5369;49.586;8.646;2024-01-30T09:26:10;12.97;;;10.33;;
10641;SDS011;5369;49.586;8.646;2024-01-30T09:28:38;12.30;;;9.27;;
10641;SDS011;5369;49.586;8.646;2024-01-30T09:31:04;12.73;;;9.90;;
10641;SDS011;5369;49.586;8.646;2024-01-30T09:33:30;14.00;;;10.17;;
10641;SDS011;5369;49.586;8.646;2024-01-30T09:35:56;14.10;;;9.63;;
10641;SDS011;5369;49.586;8.646;2024-01-30T09:38:22;15.30;;;10.13;;
10641;SDS011;5369;49.586;8.646;2024-01-30T09:40:50;14.43;;;10.50;;
10641;SDS011;5369;49.586;8.646;2024-01-30T09:43:21;13.87;;;10.00;;
10641;SDS011;5369;49.586;8.646;2024-01-30T09:45:49;13.40;;;9.73;;
10641;SDS011;5369;49.586;8.646;2024-01-30T09:48:16;14.70;;;9.83;;
10641;SDS011;5369;49.586;8.646;2024-01-30T09:50:42;11.90;;;9.80;;
10641;SDS011;5369;49.586;8.646;2024-01-30T09:53:08;13.87;;;10.60;;
10641;SDS011;5369;49.586;8.646;2024-01-30T09:55:35;12.27;;;9.63;;
10641;SDS011;5369;49.586;8.646;2024-01-30T09:58:01;13.93;;;9.80;;
10641;SDS011;5369;49.586;8.646;2024-01-30T10:00:27;12.73;;;10.17;;
10641;SDS011;5369;49.586;8.646;2024-01-30T10:02:54;12.30;;;9.60;;
10641;SDS011;5369;49.586;8.646;2024-01-30T10:05:20;13.10;;;10.13;;
10641;SDS011;5369;49.586;8.646;2024-01-30T10:07:53;14.00;;;10.33;;
10641;SDS011;5369;49.586;8.646;2024-01-30T10:10:24;13.37;;;10.33;;
10641;SDS011;5369;49.586;8.646;2024-01-30T10:12:50;14.60;;;9.83;;
10641;SDS011;5369;49.586;8.646;2024-01-30T10:15:19;13.43;;;10.10;;
10641;SDS011;5369;49.586;8.646;2024-01-30T10:17:46;13.70;;;10.13;;
10641;SDS011;5369;49.586;8.646;2024-01-30T10:20:12;13.27;;;9.63;;
10641;SDS011;5369;49.586;8.646;2024-01-30T10:22:39;12.20;;;9.27;;
10641;SDS011;5369;49.586;8.646;2024-01-30T10:25:09;10.43;;;9.17;;
10641;SDS011;5369;49.586;8.646;2024-01-30T10:27:36;12.57;;;8.93;;
10641;SDS011;5369;49.586;8.646;2024-01-30T10:30:02;10.23;;;8.70;;
10641;SDS011;5369;49.586;8.646;2024-01-30T10:32:30;13.23;;;9.63;;
10641;SDS011;5369;49.586;8.646;2024-01-30T10:34:56;11.70;;;9.43;;
10641;SDS011;5369;49.586;8.646;2024-01-30T10:37:23;10.93;;;9.10;;
10641;SDS011;5369;49.586;8.646;2024-01-30T10:39:50;11.23;;;8.97;;
10641;SDS011;5369;49.586;8.646;2024-01-30T10:42:18;11.30;;;9.20;;
10641;SDS011;5369;49.586;8.646;2024-01-30T10:47:26;10.67;;;8.30;;
10641;SDS011;5369;49.586;8.646;2024-01-30T10:49:52;11.73;;;9.10;;
10641;SDS011;5369;49.586;8.646;2024-01-30T10:52:20;11.67;;;8.80;;
10641;SDS011;5369;49.586;8.646;2024-01-30T10:54:46;12.57;;;9.00;;
10641;SDS011;5369;49.586;8.646;2024-01-30T10:57:12;10.47;;;8.90;;
10641;SDS011;5369;49.586;8.646;2024-01-30T10:59:39;12.00;;;8.73;;
10641;SDS011;5369;49.586;8.646;2024-01-30T11:02:06;10.93;;;8.70;;
10641;SDS011;5369;49.586;8.646;2024-01-30T11:04:40;12.07;;;8.63;;
10641;SDS011;5369;49.586;8.646;2024-01-30T11:12:40;9.27;;;7.90;;
10641;SDS011;5369;49.586;8.646;2024-01-30T11:15:09;11.33;;;7.97;;
10641;SDS011;5369;49.586;8.646;2024-01-30T11:17:42;9.87;;;8.20;;
10641;SDS011;5369;49.586;8.646;2024-01-30T11:20:12;11.00;;;7.97;;
10641;SDS011;5369;49.586;8.646;2024-01-30T11:22:41;10.50;;;7.57;;
10641;SDS011;5369;49.586;8.646;2024-01-30T11:25:16;10.60;;;7.80;;
10641;SDS011;5369;49.586;8.646;2024-01-30T11:27:43;10.60;;;7.90;;
10641;SDS011;5369;49.586;8.646;2024-01-30T11:30:09;9.57;;;7.80;;
10641;SDS011;5369;49.586;8.646;2024-01-30T11:32:36;9.93;;;7.80;;
10641;SDS011;5369;49.586;8.646;2024-01-30T11:35:04;9.07;;;7.70;;
10641;SDS011;5369;49.586;8.646;2024-01-30T11:37:31;10.50;;;7.53;;
10641;SDS011;5369;49.586;8.646;2024-01-30T11:39:58;10.27;;;8.07;;
10641;SDS011;5369;49.586;8.646;2024-01-30T11:42:24;9.67;;;7.50;;
10641;SDS011;5369;49.586;8.646;2024-01-30T11:44:52;11.70;;;8.47;;
10641;SDS011;5369;49.586;8.646;2024-01-30T11:47:18;10.37;;;7.97;;
10641;SDS011;5369;49.586;8.646;2024-01-30T11:49:45;10.40;;;8.03;;
10641;SDS011;5369;49.586;8.646;2024-01-30T11:52:11;12.60;;;8.23;;
10641;SDS011;5369;49.586;8.646;2024-01-30T11:54:41;12.27;;;8.60;;
10641;SDS011;5369;49.586;8.646;2024-01-30T11:57:07;16.93;;;10.50;;
10641;SDS011;5369;49.586;8.646;2024-01-30T11:59:33;12.13;;;9.13;;
10641;SDS011;5369;49.586;8.646;2024-01-30T12:01:59;11.33;;;7.97;;
10641;SDS011;5369;49.586;8.646;2024-01-30T12:04:29;12.83;;;8.43;;
10641;SDS011;5369;49.586;8.646;2024-01-30T12:06:55;12.93;;;9.17;;
10641;SDS011;5369;49.586;8.646;2024-01-30T12:09:22;11.87;;;8.77;;
10641;SDS011;5369;49.586;8.646;2024-01-30T12:11:49;11.17;;;8.40;;
10641;SDS011;5369;49.586;8.646;2024-01-30T12:14:16;15.17;;;8.97;;
10641;SDS011;5369;49.586;8.646;2024-01-30T12:16:42;10.80;;;8.93;;
10641;SDS011;5369;49.586;8.646;2024-01-30T12:19:08;12.50;;;9.10;;
10641;SDS011;5369;49.586;8.646;2024-01-30T12:21:35;9.10;;;7.87;;
10641;SDS011;5369;49.586;8.646;2024-01-30T12:24:01;10.93;;;8.40;;
10641;SDS011;5369;49.586;8.646;2024-01-30T12:26:28;12.10;;;8.67;;
10641;SDS011;5369;49.586;8.646;2024-01-30T12:28:54;10.57;;;8.63;;
10641;SDS011;5369;49.586;8.646;2024-01-30T12:31:27;11.33;;;8.93;;
10641;SDS011;5369;49.586;8.646;2024-01-30T12:33:53;11.27;;;8.63;;
10641;SDS011;5369;49.586;8.646;2024-01-30T12:36:21;10.87;;;8.30;;
10641;SDS011;5369;49.586;8.646;2024-01-30T12:38:47;10.87;;;8.27;;
10641;SDS011;5369;49.586;8.646;2024-01-30T12:41:14;10.80;;;8.87;;
10641;SDS011;5369;49.586;8.646;2024-01-30T12:43:41;11.87;;;9.23;;
10641;SDS011;5369;49.586;8.646;2024-01-30T12:46:07;10.93;;;8.97;;
10641;SDS011;5369;49.586;8.646;2024-01-30T12:48:33;10.53;;;9.00;;
10641;SDS011;5369;49.586;8.646;2024-01-30T12:51:00;12.80;;;9.40;;
10641;SDS011;5369;49.586;8.646;2024-01-30T12:53:26;10.47;;;9.00;;
10641;SDS011;5369;49.586;8.646;2024-01-30T12:55:52;11.83;;;9.17;;
10641;SDS011;5369;49.586;8.646;2024-01-30T12:58:19;11.53;;;8.97;;
10641;SDS011;5369;49.586;8.646;2024-01-30T13:00:46;11.67;;;8.93;;
10641;SDS011;5369;49.586;8.646;2024-01-30T13:03:12;11.70;;;8.90;;
10641;SDS011;5369;49.586;8.646;2024-01-30T13:05:38;10.60;;;9.20;;
10641;SDS011;5369;49.586;8.646;2024-01-30T13:08:05;11.20;;;9.13;;
10641;SDS011;5369;49.586;8.646;2024-01-30T13:10:31;11.17;;;8.60;;
10641;SDS011;5369;49.586;8.646;2024-01-30T13:12:57;9.53;;;8.53;;
10641;SDS011;5369;49.586;8.646;2024-01-30T13:15:23;11.03;;;9.40;;
10641;SDS011;5369;49.586;8.646;2024-01-30T13:17:49;10.80;;;8.40;;
10641;SDS011;5369;49.586;8.646;2024-01-30T13:20:18;10.10;;;8.60;;
10641;SDS011;5369;49.586;8.646;2024-01-30T13:22:49;11.00;;;8.43;;
10641;SDS011;5369;49.586;8.646;2024-01-30T13:25:15;10.90;;;8.60;;
10641;SDS011;5369;49.586;8.646;2024-01-30T13:27:42;11.23;;;9.13;;
10641;SDS011;5369;49.586;8.646;2024-01-30T13:30:08;9.37;;;8.37;;
10641;SDS011;5369;49.586;8.646;2024-01-30T13:32:34;10.50;;;8.20;;
10641;SDS011;5369;49.586;8.646;2024-01-30T13:35:01;11.67;;;8.87;;
10641;SDS011;5369;49.586;8.646;2024-01-30T13:37:27;13.23;;;9.53;;
10641;SDS011;5369;49.586;8.646;2024-01-30T13:39:53;11.93;;;8.77;;
10641;SDS011;5369;49.586;8.646;2024-01-30T13:42:19;10.20;;;8.60;;
10641;SDS011;5369;49.586;8.646;2024-01-30T13:44:45;11.37;;;9.10;;
10641;SDS011;5369;49.586;8.646;2024-01-30T13:47:11;11.60;;;8.87;;
10641;SDS011;5369;49.586;8.646;2024-01-30T13:49:37;10.80;;;9.07;;
10641;SDS011;5369;49.586;8.646;2024-01-30T13:52:04;9.17;;;7.87;;
10641;SDS011;5369;49.586;8.646;2024-01-30T13:54:30;9.77;;;8.00;;
10641;SDS011;5369;49.586;8.646;2024-01-30T13:56:57;9.70;;;8.20;;
10641;SDS011;5369;49.586;8.646;2024-01-30T13:59:23;10.37;;;8.03;;
10641;SDS011;5369;49.586;8.646;2024-01-30T14:01:51;9.40;;;7.97;;
10641;SDS011;5369;49.586;8.646;2024-01-30T14:04:17;9.03;;;7.73;;
10641;SDS011;5369;49.586;8.646;2024-01-30T14:06:43;10.17;;;7.80;;
10641;SDS011;5369;49.586;8.646;2024-01-30T14:09:09;10.57;;;7.53;;
10641;SDS011;5369;49.586;8.646;2024-01-30T14:11:36;8.93;;;7.73;;
10641;SDS011;5369;49.586;8.646;2024-01-30T14:14:02;9.00;;;7.93;;
10641;SDS011;5369;49.586;8.646;2024-01-30T14:16:28;9.67;;;8.00;;
10641;SDS011;5369;49.586;8.646;2024-01-30T14:18:54;10.40;;;8.87;;
10641;SDS011;5369;49.586;8.646;2024-01-30T14:21:20;11.67;;;8.43;;
10641;SDS011;5369;49.586;8.646;2024-01-30T14:23:47;12.23;;;8.87;;
10641;SDS011;5369;49.586;8.646;2024-01-30T14:26:13;10.97;;;8.27;;
10641;SDS011;5369;49.586;8.646;2024-01-30T14:28:39;11.30;;;8.00;;
10641;SDS011;5369;49.586;8.646;2024-01-30T14:31:05;9.10;;;7.00;;
10641;SDS011;5369;49.586;8.646;2024-01-30T14:33:31;10.03;;;7.83;;
10641;SDS011;5369;49.586;8.646;2024-01-30T14:35:57;12.43;;;8.13;;
10641;SDS011;5369;49.586;8.646;2024-01-30T14:38:24;8.93;;;7.97;;
10641;SDS011;5369;49.586;8.646;2024-01-30T14:40:53;10.30;;;7.80;;
10641;SDS011;5369;49.586;8.646;2024-01-30T14:43:19;10.13;;;7.77;;